createdAt,value
2022-08-03T00:01:55.137Z,18.66
2022-08-03T00:04:22.990Z,18.64
2022-08-03T00:07:02.056Z,18.63
2022-08-03T00:09:35.444Z,18.63
2022-08-03T00:12:04.539Z,18.61
2022-08-03T00:14:34.375Z,18.60
2022-08-03T00:17:02.931Z,18.57
2022-08-03T00:19:31.485Z,18.54
2022-08-03T00:22:00.436Z,18.52
2022-08-03T00:24:28.602Z,18.49
2022-08-03T00:26:57.777Z,18.45
2022-08-03T00:29:26.686Z,18.42
2022-08-03T00:31:59.478Z,18.41
2022-08-03T00:34:36.702Z,18.38
2022-08-03T00:37:18.204Z,18.35
2022-08-03T00:39:48.210Z,18.33
2022-08-03T00:42:16.572Z,18.30
2022-08-03T00:44:45.459Z,18.28
2022-08-03T00:47:13.466Z,18.25
2022-08-03T00:49:41.861Z,18.24
2022-08-03T00:52:11.048Z,18.22
2022-08-03T00:54:39.398Z,18.21
2022-08-03T00:57:07.583Z,18.19
2022-08-03T00:59:37.833Z,18.16
2022-08-03T01:02:06.621Z,18.14
2022-08-03T01:04:35.086Z,18.12
2022-08-03T01:07:16.911Z,18.11
2022-08-03T01:09:55.662Z,18.08
2022-08-03T01:12:34.682Z,18.04
2022-08-03T01:15:10.673Z,18.01
2022-08-03T01:17:50.128Z,17.99
2022-08-03T01:20:20.520Z,17.97
2022-08-03T01:23:08.334Z,17.97
2022-08-03T01:25:54.248Z,17.96
2022-08-03T01:28:37.968Z,17.93
2022-08-03T01:31:08.603Z,17.89
2022-08-03T01:33:40.249Z,17.85
2022-08-03T01:36:13.588Z,17.84
2022-08-03T01:38:44.545Z,17.80
2022-08-03T01:41:18.498Z,17.79
2022-08-03T01:44:27.892Z,17.76
2022-08-03T01:46:40.000Z,17.74
2022-08-03T01:49:12.786Z,17.71
2022-08-03T01:51:58.624Z,17.68
2022-08-03T01:54:34.013Z,17.67
2022-08-03T01:57:05.230Z,17.67
2022-08-03T01:59:37.429Z,17.66
2022-08-03T02:02:32.171Z,17.64
2022-08-03T02:04:58.921Z,17.63
2022-08-03T02:07:29.215Z,17.61
2022-08-03T02:09:58.236Z,17.59
2022-08-03T02:12:28.869Z,17.59
2022-08-03T02:15:00.018Z,17.58
2022-08-03T02:17:39.486Z,17.57
2022-08-03T02:20:11.830Z,17.55
2022-08-03T02:22:42.051Z,17.54
2022-08-03T02:25:12.638Z,17.51
2022-08-03T02:27:51.573Z,17.49
2022-08-03T02:30:22.043Z,17.47
2022-08-03T02:32:56.681Z,17.47
2022-08-03T02:35:28.179Z,17.47
2022-08-03T02:38:03.818Z,17.48
2022-08-03T02:40:37.371Z,17.48
2022-08-03T02:43:12.087Z,17.47
2022-08-03T02:45:46.273Z,17.46
2022-08-03T02:48:18.337Z,17.45
2022-08-03T02:50:47.279Z,17.45
2022-08-03T02:53:17.234Z,17.45
2022-08-03T02:55:48.334Z,17.46
2022-08-03T02:58:20.525Z,17.47
2022-08-03T03:00:51.455Z,17.46
2022-08-03T03:03:20.689Z,17.45
2022-08-03T03:05:54.626Z,17.42
2022-08-03T03:08:28.945Z,17.37
2022-08-03T03:10:59.502Z,17.30
2022-08-03T03:13:28.418Z,17.28
2022-08-03T03:15:59.470Z,17.28
2022-08-03T03:18:29.154Z,17.29
2022-08-03T03:20:58.677Z,17.29
2022-08-03T03:23:28.394Z,17.31
2022-08-03T03:25:58.269Z,17.33
2022-08-03T03:28:26.725Z,17.35
2022-08-03T03:30:56.092Z,17.37
2022-08-03T03:33:24.338Z,17.38
2022-08-03T03:35:52.573Z,17.39
2022-08-03T03:38:20.687Z,17.41
2022-08-03T03:40:49.931Z,17.41
2022-08-03T03:43:18.815Z,17.41
2022-08-03T03:45:48.747Z,17.43
2022-08-03T03:48:17.573Z,17.45
2022-08-03T03:50:46.791Z,17.46
2022-08-03T03:53:15.942Z,17.47
2022-08-03T03:55:59.653Z,17.49
2022-08-03T03:58:32.857Z,17.51
2022-08-03T04:01:01.489Z,17.50
2022-08-03T04:03:33.193Z,17.51
2022-08-03T04:06:19.246Z,17.52
2022-08-03T04:09:13.716Z,17.52
2022-08-03T04:11:48.603Z,17.53
2022-08-03T04:14:20.625Z,17.53
2022-08-03T04:16:51.572Z,17.52
2022-08-03T04:19:32.123Z,17.52
2022-08-03T04:22:05.570Z,17.52
2022-08-03T04:24:37.564Z,17.53
2022-08-03T04:27:09.479Z,17.54
2022-08-03T04:29:48.265Z,17.54
2022-08-03T04:32:19.191Z,17.54
2022-08-03T04:34:48.105Z,17.54
2022-08-03T04:37:25.489Z,17.57
2022-08-03T04:39:57.729Z,17.58
2022-08-03T04:42:27.703Z,17.59
2022-08-03T04:45:01.443Z,17.59
2022-08-03T04:47:34.252Z,17.59
2022-08-03T04:50:03.882Z,17.59
2022-08-03T04:52:32.840Z,17.60
2022-08-03T04:55:01.358Z,17.59
2022-08-03T04:57:29.362Z,17.59
2022-08-03T05:00:02.759Z,17.59
2022-08-03T05:02:32.170Z,17.60
2022-08-03T05:05:00.888Z,17.61
2022-08-03T05:07:36.337Z,17.62
2022-08-03T05:10:15.877Z,17.66
2022-08-03T05:12:46.813Z,17.70
2022-08-03T05:15:15.205Z,17.75
2022-08-03T05:17:45.100Z,17.80
2022-08-03T05:20:13.283Z,17.87
2022-08-03T05:22:46.526Z,17.95
2022-08-03T05:25:19.796Z,17.99
2022-08-03T05:27:49.958Z,18.04
2022-08-03T05:30:30.376Z,18.08
2022-08-03T05:33:03.050Z,18.13
2022-08-03T05:36:02.062Z,18.18
2022-08-03T05:38:28.259Z,18.27
2022-08-03T05:41:22.540Z,18.35
2022-08-03T05:43:48.891Z,18.46
2022-08-03T05:46:17.658Z,18.55
2022-08-03T05:48:45.617Z,18.66
2022-08-03T05:51:14.793Z,18.81
2022-08-03T05:53:43.374Z,19.24
2022-08-03T05:56:14.991Z,19.37
2022-08-03T05:58:45.673Z,19.40
2022-08-03T06:01:13.874Z,19.47
2022-08-03T06:03:43.926Z,19.54
2022-08-03T06:06:12.029Z,19.62
2022-08-03T06:08:40.157Z,19.69
2022-08-03T06:11:07.857Z,19.76
2022-08-03T06:13:35.666Z,19.84
2022-08-03T06:16:03.482Z,19.91
2022-08-03T06:18:31.342Z,19.99
2022-08-03T06:21:09.458Z,20.08
2022-08-03T06:23:52.603Z,20.18
2022-08-03T06:26:21.201Z,20.29
2022-08-03T06:28:52.934Z,20.38
2022-08-03T06:31:23.297Z,20.47
2022-08-03T06:34:30.907Z,20.55
2022-08-03T06:36:39.393Z,20.66
2022-08-03T06:39:08.238Z,20.76
2022-08-03T06:41:38.076Z,20.85
2022-08-03T06:44:12.667Z,20.94
2022-08-03T06:46:40.467Z,21.03
2022-08-03T06:49:08.341Z,21.11
2022-08-03T06:52:03.377Z,21.16
2022-08-03T06:54:24.131Z,21.22
2022-08-03T06:56:51.853Z,21.26
2022-08-03T07:00:10.698Z,21.30
2022-08-03T07:02:09.068Z,21.39
2022-08-03T07:04:39.441Z,21.49
2022-08-03T07:07:07.014Z,21.58
2022-08-03T07:09:34.482Z,21.68
2022-08-03T07:12:03.624Z,21.78
2022-08-03T07:14:31.242Z,21.87
2022-08-03T07:16:58.796Z,21.97
2022-08-03T07:19:26.357Z,22.05
2022-08-03T07:21:54.067Z,22.16
2022-08-03T07:24:25.914Z,22.26
2022-08-03T07:26:56.141Z,22.36
2022-08-03T07:29:23.701Z,22.46
2022-08-03T07:31:51.403Z,22.55
2022-08-03T07:34:18.907Z,22.63
2022-08-03T07:36:46.486Z,22.73
2022-08-03T07:39:16.684Z,22.82
2022-08-03T07:41:46.813Z,22.92
2022-08-03T07:44:14.277Z,23.02
2022-08-03T07:46:41.775Z,23.10
2022-08-03T07:49:09.470Z,23.19
2022-08-03T07:51:37.257Z,23.28
2022-08-03T07:54:05.245Z,23.37
2022-08-03T07:56:32.881Z,23.45
2022-08-03T07:59:02.219Z,23.53
2022-08-03T08:01:32.056Z,23.63
2022-08-03T08:03:59.803Z,23.72
2022-08-03T08:06:27.339Z,23.80
2022-08-03T08:08:58.778Z,23.89
2022-08-03T08:11:26.293Z,23.99
2022-08-03T08:13:53.842Z,24.10
2022-08-03T08:16:21.398Z,24.17
2022-08-03T08:18:48.955Z,24.25
2022-08-03T08:21:16.507Z,24.33
2022-08-03T08:23:47.084Z,24.42
2022-08-03T08:26:23.976Z,24.52
2022-08-03T08:28:52.285Z,24.58
2022-08-03T08:31:20.239Z,24.69
2022-08-03T08:34:03.598Z,24.79
2022-08-03T08:36:33.360Z,24.86
2022-08-03T08:39:00.907Z,24.92
2022-08-03T08:41:32.259Z,24.97
2022-08-03T08:44:00.469Z,25.01
2022-08-03T08:46:32.235Z,25.08
2022-08-03T08:49:04.701Z,25.15
2022-08-03T08:51:59.657Z,25.25
2022-08-03T08:54:28.892Z,25.33
2022-08-03T08:57:01.185Z,25.37
2022-08-03T08:59:48.503Z,25.43
2022-08-03T09:02:16.914Z,25.51
2022-08-03T09:04:48.150Z,25.54
2022-08-03T09:07:20.433Z,25.59
2022-08-03T09:10:11.496Z,25.64
2022-08-03T09:12:42.700Z,25.70
2022-08-03T09:15:23.047Z,25.76
2022-08-03T09:17:53.173Z,25.80
2022-08-03T09:20:22.819Z,25.86
2022-08-03T09:22:54.901Z,25.93
2022-08-03T09:25:28.906Z,25.96
2022-08-03T09:28:05.553Z,26.02
2022-08-03T09:30:35.253Z,26.09
2022-08-03T09:33:04.934Z,26.13
2022-08-03T09:38:23.743Z,26.23
2022-08-03T09:40:53.784Z,26.27
2022-08-03T09:43:26.896Z,26.30
2022-08-03T09:46:03.700Z,26.36
2022-08-03T09:48:34.049Z,26.42
2022-08-03T09:51:12.498Z,26.44
2022-08-03T09:53:57.300Z,26.47
2022-08-03T09:56:39.250Z,26.47
2022-08-03T09:59:09.440Z,26.49
2022-08-03T10:01:40.899Z,26.50
2022-08-03T10:04:14.549Z,26.53
2022-08-03T10:06:42.856Z,26.54
2022-08-03T10:09:13.305Z,26.56
2022-08-03T10:11:42.854Z,26.57
2022-08-03T10:14:18.198Z,26.61
2022-08-03T10:16:47.279Z,26.67
2022-08-03T10:19:15.758Z,26.71
2022-08-03T10:21:49.274Z,26.78
2022-08-03T10:24:23.898Z,26.81
2022-08-03T10:26:53.436Z,26.82
2022-08-03T10:29:24.685Z,26.87
2022-08-03T10:31:58.644Z,26.92
2022-08-03T10:34:39.238Z,26.95
2022-08-03T10:37:15.041Z,27.01
2022-08-03T10:39:53.116Z,27.05
2022-08-03T10:42:26.418Z,27.08
2022-08-03T10:45:00.581Z,27.11
2022-08-03T10:47:29.613Z,27.16
2022-08-03T10:49:58.380Z,27.20
2022-08-03T10:52:33.779Z,27.27
2022-08-03T10:55:50.407Z,27.35
2022-08-03T10:58:57.381Z,27.51
2022-08-03T11:01:58.634Z,27.59
2022-08-03T11:04:29.463Z,27.70
2022-08-03T11:07:21.886Z,27.75
2022-08-03T11:09:51.838Z,27.79
2022-08-03T11:12:30.892Z,27.80
2022-08-03T11:15:01.495Z,27.82
2022-08-03T11:17:29.213Z,27.92
2022-08-03T11:19:58.511Z,28.02
2022-08-03T11:22:46.502Z,28.05
2022-08-03T11:25:53.431Z,28.07
2022-08-03T11:28:34.574Z,28.07
2022-08-03T11:31:49.458Z,28.02
2022-08-03T11:34:18.213Z,28.05
2022-08-03T11:37:22.136Z,28.06
2022-08-03T11:39:54.325Z,28.06
2022-08-03T11:42:40.719Z,27.93
2022-08-03T11:45:09.772Z,27.90
2022-08-03T11:47:50.725Z,27.95
2022-08-03T11:50:20.558Z,28.04
2022-08-03T11:52:49.047Z,28.15
2022-08-03T11:55:19.748Z,28.26
2022-08-03T11:59:01.191Z,28.37
2022-08-03T12:00:35.451Z,28.51
2022-08-03T12:03:05.938Z,28.58
2022-08-03T12:05:51.253Z,28.77
2022-08-03T12:08:31.535Z,28.98
2022-08-03T12:11:00.914Z,29.03
2022-08-03T12:14:45.024Z,29.06
2022-08-03T12:16:27.846Z,29.05
2022-08-03T12:18:57.149Z,29.05
2022-08-03T12:21:24.755Z,29.09
2022-08-03T12:23:59.378Z,29.13
2022-08-03T12:26:27.739Z,29.27
2022-08-03T12:28:55.269Z,29.37
2022-08-03T12:31:22.985Z,29.44
2022-08-03T12:33:59.555Z,29.59
2022-08-03T12:36:29.042Z,29.71
2022-08-03T12:38:58.629Z,29.76
2022-08-03T12:41:32.066Z,29.86
2022-08-03T12:44:00.651Z,29.87
2022-08-03T12:46:33.888Z,29.93
2022-08-03T12:49:10.255Z,30.11
2022-08-03T12:51:55.337Z,30.22
2022-08-03T12:54:25.462Z,30.31
2022-08-03T12:57:00.465Z,30.39
2022-08-03T12:59:35.030Z,30.51
2022-08-03T13:02:04.712Z,30.60
2022-08-03T13:04:37.409Z,30.73
2022-08-03T13:07:14.606Z,30.78
2022-08-03T13:09:44.216Z,30.84
2022-08-03T13:12:13.724Z,30.92
2022-08-03T13:14:42.214Z,30.93
2022-08-03T13:17:09.909Z,31.04
2022-08-03T13:19:38.986Z,31.14
2022-08-03T13:22:13.538Z,31.25
2022-08-03T13:24:42.227Z,31.37
2022-08-03T13:28:00.960Z,31.46
2022-08-03T13:29:58.760Z,31.54
2022-08-03T13:32:26.562Z,31.65
2022-08-03T13:34:54.138Z,31.73
2022-08-03T13:37:22.107Z,31.82
2022-08-03T13:39:58.807Z,31.94
2022-08-03T13:42:28.933Z,32.08
2022-08-03T13:44:56.521Z,32.19
2022-08-03T13:47:24.340Z,32.31
2022-08-03T13:49:59.906Z,32.45
2022-08-03T13:52:34.415Z,32.59
2022-08-03T13:55:03.735Z,32.69
2022-08-03T13:58:02.972Z,32.72
2022-08-03T14:00:26.285Z,32.80
2022-08-03T14:02:59.937Z,32.90
2022-08-03T14:05:32.270Z,33.00
2022-08-03T14:08:04.737Z,33.22
2022-08-03T14:10:34.049Z,33.45
2022-08-03T14:13:01.925Z,33.65
2022-08-03T14:15:29.618Z,33.82
2022-08-03T14:17:58.524Z,34.05
2022-08-03T14:20:38.717Z,34.28
2022-08-03T14:23:14.789Z,34.50
2022-08-03T14:25:43.497Z,34.75
2022-08-03T14:28:19.202Z,35.01
2022-08-03T14:30:47.892Z,35.25
2022-08-03T14:33:15.493Z,35.49
2022-08-03T14:35:43.416Z,35.78
2022-08-03T14:38:10.975Z,36.08
2022-08-03T14:40:38.820Z,36.42
2022-08-03T14:43:06.502Z,36.78
2022-08-03T14:45:34.149Z,37.09
2022-08-03T14:50:33.073Z,37.37
2022-08-03T14:50:52.114Z,37.70
2022-08-03T14:53:20.144Z,37.96
2022-08-03T14:55:50.595Z,38.23
2022-08-03T14:58:22.634Z,38.64
2022-08-03T15:00:51.411Z,39.13
2022-08-03T15:03:22.590Z,39.59
2022-08-03T15:05:50.381Z,40.16
2022-08-03T15:08:18.148Z,40.78
2022-08-03T15:10:46.608Z,41.37
2022-08-03T15:13:18.829Z,42.01
2022-08-03T15:15:47.380Z,42.61
2022-08-03T15:18:14.933Z,43.17
2022-08-03T15:20:45.388Z,43.75
2022-08-03T15:23:14.749Z,44.49
2022-08-03T15:26:03.596Z,45.25
2022-08-03T15:28:33.034Z,46.00
2022-08-03T15:31:01.112Z,46.60
2022-08-03T15:33:29.227Z,47.10
2022-08-03T15:35:57.079Z,47.48
2022-08-03T15:38:25.952Z,47.74
2022-08-03T15:40:54.765Z,47.93
2022-08-03T15:43:23.279Z,47.39
2022-08-03T15:46:19.189Z,45.91
2022-08-03T15:48:39.155Z,44.32
2022-08-03T15:51:07.169Z,43.17
2022-08-03T15:53:34.859Z,42.08
2022-08-03T15:56:09.683Z,41.19
2022-08-03T15:59:04.117Z,40.39
2022-08-03T16:01:27.359Z,39.47
2022-08-03T16:03:54.987Z,38.78
2022-08-03T16:06:29.526Z,38.16
2022-08-03T16:09:03.062Z,37.45
2022-08-03T16:11:30.730Z,36.91
2022-08-03T16:14:12.836Z,36.59
2022-08-03T16:16:46.071Z,36.25
2022-08-03T16:19:14.649Z,35.98
2022-08-03T16:21:48.885Z,35.70
2022-08-03T16:24:25.872Z,35.34
2022-08-03T16:26:55.832Z,34.92
2022-08-03T16:29:24.155Z,34.65
2022-08-03T16:31:52.645Z,34.41
2022-08-03T16:34:23.475Z,34.18
2022-08-03T16:36:54.292Z,33.91
2022-08-03T16:39:22.627Z,33.69
2022-08-03T16:41:53.575Z,33.53
2022-08-03T16:44:32.761Z,33.34
2022-08-03T16:47:02.278Z,33.16
2022-08-03T16:49:55.209Z,32.97
2022-08-03T16:52:18.240Z,32.78
2022-08-03T16:54:52.726Z,32.62
2022-08-03T16:57:59.408Z,32.43
2022-08-03T17:00:34.041Z,32.26
2022-08-03T17:03:04.083Z,32.15
2022-08-03T17:05:47.460Z,32.03
2022-08-03T17:08:16.356Z,31.90
2022-08-03T17:10:46.641Z,31.80
2022-08-03T17:13:21.523Z,31.69
2022-08-03T17:15:58.344Z,31.57
2022-08-03T17:18:33.949Z,31.45
2022-08-03T17:21:05.124Z,31.34
2022-08-03T17:23:43.898Z,31.24
2022-08-03T17:26:21.038Z,31.13
2022-08-03T17:28:57.533Z,31.02
2022-08-03T17:31:31.619Z,30.90
2022-08-03T17:34:02.132Z,30.79
2022-08-03T17:37:02.145Z,30.65
2022-08-03T17:39:41.810Z,30.54
2022-08-03T17:42:31.631Z,30.42
2022-08-03T17:45:02.081Z,30.30
2022-08-03T17:47:41.973Z,30.20
2022-08-03T17:50:25.787Z,30.11
2022-08-03T17:53:07.439Z,30.04
2022-08-03T17:55:57.481Z,29.96
2022-08-03T17:58:43.761Z,29.86
2022-08-03T18:02:00.295Z,29.78
2022-08-03T18:04:29.679Z,29.69
2022-08-03T18:07:11.881Z,29.60
2022-08-03T18:10:05.145Z,29.52
2022-08-03T18:12:45.520Z,29.42
2022-08-03T18:15:22.384Z,29.32
2022-08-03T18:17:55.108Z,29.23
2022-08-03T18:20:34.175Z,29.16
2022-08-03T18:23:07.042Z,29.08
2022-08-03T18:25:44.949Z,29.01
2022-08-03T18:28:18.698Z,28.93
2022-08-03T18:30:54.038Z,28.86
2022-08-03T18:34:19.922Z,28.77
2022-08-03T18:36:17.905Z,28.68
2022-08-03T18:38:49.151Z,28.60
2022-08-03T18:41:31.837Z,28.52
2022-08-03T18:44:06.701Z,28.44
2022-08-03T18:46:49.165Z,28.35
2022-08-03T18:49:40.292Z,28.28
2022-08-03T18:52:15.859Z,28.21
2022-08-03T18:55:04.525Z,28.12
2022-08-03T18:57:46.592Z,28.01
2022-08-03T19:00:24.950Z,27.93
2022-08-03T19:03:12.379Z,27.85
2022-08-03T19:06:03.041Z,27.78
2022-08-03T19:08:43.884Z,27.70
2022-08-03T19:11:22.475Z,27.62
2022-08-03T19:13:59.149Z,27.55
2022-08-03T19:16:34.487Z,27.47
2022-08-03T19:19:02.780Z,27.41
2022-08-03T19:21:33.766Z,27.33
2022-08-03T19:24:06.689Z,27.26
2022-08-03T19:26:38.843Z,27.17
2022-08-03T19:29:15.071Z,27.09
2022-08-03T19:31:58.898Z,27.02
2022-08-03T19:34:32.152Z,26.94
2022-08-03T19:37:11.623Z,26.90
2022-08-03T19:39:56.747Z,26.86
2022-08-03T19:42:33.638Z,26.80
2022-08-03T19:45:18.111Z,26.75
2022-08-03T19:48:15.155Z,26.70
2022-08-03T19:50:52.392Z,26.64
2022-08-03T19:53:35.422Z,26.59
2022-08-03T19:56:12.766Z,26.54
2022-08-03T19:58:54.581Z,26.49
2022-08-03T20:01:25.443Z,26.45
2022-08-03T20:03:57.053Z,26.40
2022-08-03T20:06:28.569Z,26.35
2022-08-03T20:09:06.020Z,26.29
2022-08-03T20:11:45.163Z,26.21
2022-08-03T20:14:26.451Z,26.15
2022-08-03T20:16:57.039Z,26.12
2022-08-03T20:19:32.697Z,26.09
2022-08-03T20:22:05.934Z,26.05
2022-08-03T20:24:52.738Z,26.01
2022-08-03T20:27:24.336Z,25.98
2022-08-03T20:30:07.582Z,25.93
2022-08-03T20:32:37.585Z,25.88
2022-08-03T20:35:09.835Z,25.83
2022-08-03T20:37:40.603Z,25.81
2022-08-03T20:40:18.885Z,25.78
2022-08-03T20:42:55.550Z,25.72
2022-08-03T20:45:59.734Z,25.67
2022-08-03T20:48:22.016Z,25.61
2022-08-03T20:50:55.809Z,25.54
2022-08-03T20:53:57.254Z,25.50
2022-08-03T20:56:15.455Z,25.45
2022-08-03T20:58:50.681Z,25.38
2022-08-03T21:01:27.927Z,25.32
2022-08-03T21:04:10.536Z,25.27
2022-08-03T21:06:45.481Z,25.22
2022-08-03T21:09:19.817Z,25.17
2022-08-03T21:11:51.755Z,25.13
2022-08-03T21:14:26.285Z,25.10
2022-08-03T21:16:56.291Z,25.07
2022-08-03T21:19:30.093Z,25.02
2022-08-03T21:21:58.910Z,24.98
2022-08-03T21:24:30.290Z,24.94
2022-08-03T21:27:01.098Z,24.89
2022-08-03T21:29:31.640Z,24.85
2022-08-03T21:32:01.264Z,24.79
2022-08-03T21:34:32.732Z,24.75
2022-08-03T21:37:01.292Z,24.69
2022-08-03T21:39:31.478Z,24.63
2022-08-03T21:42:00.483Z,24.58
2022-08-03T21:44:31.917Z,24.55
2022-08-03T21:47:02.436Z,24.51
2022-08-03T21:50:07.567Z,24.46
2022-08-03T21:52:25.564Z,24.40
2022-08-03T21:54:55.751Z,24.34
2022-08-03T21:57:28.260Z,24.30
2022-08-03T22:00:00.838Z,24.26
2022-08-03T22:02:31.513Z,24.20
2022-08-03T22:05:08.105Z,24.16
2022-08-03T22:07:46.692Z,24.10
2022-08-03T22:10:16.701Z,24.06
2022-08-03T22:12:45.397Z,24.02
2022-08-03T22:15:17.775Z,24.00
2022-08-03T22:17:54.795Z,23.97
2022-08-03T22:20:26.132Z,23.94
2022-08-03T22:23:00.999Z,23.89
2022-08-03T22:25:39.947Z,23.85
2022-08-03T22:28:10.927Z,23.79
2022-08-03T22:30:40.232Z,23.75
2022-08-03T22:33:11.908Z,23.70
2022-08-03T22:35:48.055Z,23.65
2022-08-03T22:38:18.285Z,23.62
2022-08-03T22:40:52.198Z,23.59
2022-08-03T22:43:24.779Z,23.56
2022-08-03T22:46:10.477Z,23.48
2022-08-03T22:48:44.361Z,23.39
2022-08-03T22:51:15.565Z,23.34
2022-08-03T22:53:46.099Z,23.27
2022-08-03T22:56:17.539Z,23.22
2022-08-03T22:58:47.281Z,23.17
2022-08-03T23:01:20.200Z,23.13
2022-08-03T23:04:08.078Z,23.08
2022-08-03T23:06:47.919Z,23.04
2022-08-03T23:09:20.509Z,22.99
2022-08-03T23:11:50.373Z,22.96
2022-08-03T23:14:21.681Z,22.92
2022-08-03T23:16:54.726Z,22.88
2022-08-03T23:19:27.569Z,22.83
2022-08-03T23:22:02.571Z,22.80
2022-08-03T23:24:37.453Z,22.77
2022-08-03T23:27:08.973Z,22.70
2022-08-03T23:29:44.893Z,22.66
2022-08-03T23:32:15.086Z,22.63
2022-08-03T23:35:06.722Z,22.60
2022-08-03T23:38:21.431Z,22.58
2022-08-03T23:40:34.361Z,22.53
2022-08-03T23:43:06.146Z,22.48
2022-08-03T23:45:39.310Z,22.41
2022-08-03T23:48:11.782Z,22.36
2022-08-03T23:50:58.843Z,22.32
2022-08-03T23:53:33.650Z,22.29
2022-08-03T23:56:23.016Z,22.24
2022-08-03T23:59:06.966Z,22.20
